Alconbury RAF, United Kingdom

11:28 AM BST on October 21, 2014 (GMT +0100)
Cambridgeshire | Change Station
CLOSE
Current Station
Personal Weather Station
Location: St Ives, CAMBRIDGESHIRE
Elevation: 95 ft
Nearby Weather Stations

Elev 95 ft 52.34 °N, 0.09 °W | Updated 20 minutes ago

Scattered Clouds
Scattered Clouds
54.7 °F
Feels Like 54.7 °F
N
3.6
Wind Variable Wind from West
Gusts 8.3 mph

Today
High -- | Low -- °F
--% Chance of Precip.
Yesterday
High -- | Low -- °F
Precip. -- in
7:36 AM 5:53 PM
Waning Crescent, 6% visible
Pressure 29.56 in
Visibility 6.2 miles
Clouds Scattered Clouds 3600 ft
Dew Point 36 °F
Humidity 49%
Rainfall 0.04 in
Snow Depth Not available.
UV 2 out of 12
Pollen Not available.
Air Quality Not available.
Flu Activity Not available.
METAR EGSC 211020Z 27024G38KT 230V310 9999 SCT036 12/05 Q1001 RERA

More Conditions Fewer Conditions

Pressure 29.56 in
Visibility 6.2 miles
Clouds Scattered Clouds 3600 ft
Dew Point 36 °F
Humidity 49%
Rainfall 0.04 in
Snow Depth Not available.
UV 2 out of 12
Pollen Not available.
Air Quality Not available.
Flu Activity Not available.
METAR EGSC 211020Z 27024G38KT 230V310 9999 SCT036 12/05 Q1001 RERA

More Conditions Fewer Conditions

10-Day Weather Forecast

Almanac

Astronomy

Oct. 21, 2014 Rise Set
Actual Time 7:36 AM BST 5:53 PM BST
Civil Twilight 7:01 AM BST 6:28 PM BST
Nautical Twilight 6:22 AM BST 7:07 PM BST
Astronomical Twilight 5:42 AM BST 7:47 PM BST
Moon 4:48 AM BST 4:54 PM BST
Length of Visible Light 11h 26m
Length of Day
10h 17m
Tomorrow will be 3m 53s shorter.
Waning Crescent, 6% of the Moon is Illuminated
Today
Waning Crescent
Oct 23
New
Oct 30
First Quarter
Nov 6
Full
Nov 14
Last Quarter

Yesterday's Extremes

Country Highs Country Lows

Community

WunderPhotos

Upload Photos

1,763,625 photos uploaded!

Nearby

Snow Depth

Not available.

Earthquake Activity

City Distance Mag. Time & Date
No recent earthquake activity has been reported nearby.
Minimum magnitude displayed is 2.5.

Coastal Water Temperatures

Place Temperature
No Stations Reporting

Nearby Weather Stations